sensor_id;sensor_type;location;lat;lon;timestamp;temperature;humidity
6293;DHT22;3179;54.350;10.102;2022-12-07T00:00:36;5.40;99.90
6293;DHT22;3179;54.350;10.102;2022-12-07T00:03:03;5.40;99.90
6293;DHT22;3179;54.350;10.102;2022-12-07T00:05:30;5.40;99.90
6293;DHT22;3179;54.350;10.102;2022-12-07T00:07:57;5.30;99.90
6293;DHT22;3179;54.350;10.102;2022-12-07T00:10:23;5.40;99.90
6293;DHT22;3179;54.350;10.102;2022-12-07T00:12:50;5.30;99.90
6293;DHT22;3179;54.350;10.102;2022-12-07T00:15:18;5.30;99.90
6293;DHT22;3179;54.350;10.102;2022-12-07T00:17:45;5.30;99.90
6293;DHT22;3179;54.350;10.102;2022-12-07T00:20:12;5.30;99.90
6293;DHT22;3179;54.350;10.102;2022-12-07T00:22:39;5.30;99.90
6293;DHT22;3179;54.350;10.102;2022-12-07T00:25:06;5.30;99.90
6293;DHT22;3179;54.350;10.102;2022-12-07T00:27:33;5.30;99.90
6293;DHT22;3179;54.350;10.102;2022-12-07T00:29:59;5.30;99.90
6293;DHT22;3179;54.350;10.102;2022-12-07T00:32:27;5.30;99.90
6293;DHT22;3179;54.350;10.102;2022-12-07T00:34:54;5.30;99.90
6293;DHT22;3179;54.350;10.102;2022-12-07T00:37:21;5.30;99.90
6293;DHT22;3179;54.350;10.102;2022-12-07T00:39:48;5.30;99.90
6293;DHT22;3179;54.350;10.102;2022-12-07T00:42:15;5.30;99.90
6293;DHT22;3179;54.350;10.102;2022-12-07T00:44:41;5.30;99.90
6293;DHT22;3179;54.350;10.102;2022-12-07T00:47:08;5.30;99.90
6293;DHT22;3179;54.350;10.102;2022-12-07T00:49:37;5.30;99.90
6293;DHT22;3179;54.350;10.102;2022-12-07T00:52:03;5.20;99.90
6293;DHT22;3179;54.350;10.102;2022-12-07T00:54:30;5.10;99.90
6293;DHT22;3179;54.350;10.102;2022-12-07T00:56:57;5.00;99.90
6293;DHT22;3179;54.350;10.102;2022-12-07T00:59:24;4.90;99.90
6293;DHT22;3179;54.350;10.102;2022-12-07T01:01:51;4.90;99.90
6293;DHT22;3179;54.350;10.102;2022-12-07T01:04:17;4.80;99.90
6293;DHT22;3179;54.350;10.102;2022-12-07T01:06:45;4.80;99.90
6293;DHT22;3179;54.350;10.102;2022-12-07T01:09:12;4.80;99.90
6293;DHT22;3179;54.350;10.102;2022-12-07T01:11:39;4.80;99.90
6293;DHT22;3179;54.350;10.102;2022-12-07T01:14:06;4.80;99.90
6293;DHT22;3179;54.350;10.102;2022-12-07T01:16:33;4.80;99.90
6293;DHT22;3179;54.350;10.102;2022-12-07T01:19:00;4.80;99.90
6293;DHT22;3179;54.350;10.102;2022-12-07T01:21:31;4.80;99.90
6293;DHT22;3179;54.350;10.102;2022-12-07T01:24:02;4.80;99.90
6293;DHT22;3179;54.350;10.102;2022-12-07T01:26:29;4.90;99.90
6293;DHT22;3179;54.350;10.102;2022-12-07T01:28:55;4.90;99.90
6293;DHT22;3179;54.350;10.102;2022-12-07T01:31:25;4.80;99.90
6293;DHT22;3179;54.350;10.102;2022-12-07T01:33:54;4.90;99.90
6293;DHT22;3179;54.350;10.102;2022-12-07T01:36:23;4.90;99.90
6293;DHT22;3179;54.350;10.102;2022-12-07T01:38:53;4.90;99.90
6293;DHT22;3179;54.350;10.102;2022-12-07T01:41:24;4.90;99.90
6293;DHT22;3179;54.350;10.102;2022-12-07T01:44:13;4.90;99.90
6293;DHT22;3179;54.350;10.102;2022-12-07T01:46:42;4.90;99.90
6293;DHT22;3179;54.350;10.102;2022-12-07T01:49:13;4.90;99.90
6293;DHT22;3179;54.350;10.102;2022-12-07T01:51:42;4.90;99.90
6293;DHT22;3179;54.350;10.102;2022-12-07T01:54:11;4.80;99.90
6293;DHT22;3179;54.350;10.102;2022-12-07T01:56:40;4.90;99.90
6293;DHT22;3179;54.350;10.102;2022-12-07T01:59:09;4.90;99.90
6293;DHT22;3179;54.350;10.102;2022-12-07T02:01:36;4.90;99.90
6293;DHT22;3179;54.350;10.102;2022-12-07T02:04:03;4.90;99.90
6293;DHT22;3179;54.350;10.102;2022-12-07T02:06:30;4.90;99.90
6293;DHT22;3179;54.350;10.102;2022-12-07T02:08:57;4.80;99.90
6293;DHT22;3179;54.350;10.102;2022-12-07T02:11:23;4.90;99.90
6293;DHT22;3179;54.350;10.102;2022-12-07T02:13:52;4.90;99.90
6293;DHT22;3179;54.350;10.102;2022-12-07T02:16:26;4.90;99.90
6293;DHT22;3179;54.350;10.102;2022-12-07T02:19:04;4.90;99.90
6293;DHT22;3179;54.350;10.102;2022-12-07T02:21:40;4.90;99.90
6293;DHT22;3179;54.350;10.102;2022-12-07T02:24:24;4.90;99.90
6293;DHT22;3179;54.350;10.102;2022-12-07T02:27:18;4.80;99.90
6293;DHT22;3179;54.350;10.102;2022-12-07T02:29:57;4.80;99.90
6293;DHT22;3179;54.350;10.102;2022-12-07T02:32:28;4.90;99.90
6293;DHT22;3179;54.350;10.102;2022-12-07T02:35:02;4.90;99.90
6293;DHT22;3179;54.350;10.102;2022-12-07T02:37:36;4.80;99.90
6293;DHT22;3179;54.350;10.102;2022-12-07T02:40:10;4.80;99.90
6293;DHT22;3179;54.350;10.102;2022-12-07T02:42:44;4.80;99.90
6293;DHT22;3179;54.350;10.102;2022-12-07T02:45:15;4.90;99.90
6293;DHT22;3179;54.350;10.102;2022-12-07T02:47:44;4.90;99.90
6293;DHT22;3179;54.350;10.102;2022-12-07T02:50:12;4.90;99.90
6293;DHT22;3179;54.350;10.102;2022-12-07T02:52:39;4.90;99.90
6293;DHT22;3179;54.350;10.102;2022-12-07T02:55:07;4.90;99.90
6293;DHT22;3179;54.350;10.102;2022-12-07T02:57:45;5.00;99.90
6293;DHT22;3179;54.350;10.102;2022-12-07T03:00:18;5.00;99.90
6293;DHT22;3179;54.350;10.102;2022-12-07T03:02:52;5.10;99.90
6293;DHT22;3179;54.350;10.102;2022-12-07T03:05:35;5.10;99.90
6293;DHT22;3179;54.350;10.102;2022-12-07T03:08:12;5.10;99.90
6293;DHT22;3179;54.350;10.102;2022-12-07T03:10:45;5.20;99.90
6293;DHT22;3179;54.350;10.102;2022-12-07T03:13:23;5.10;99.90
6293;DHT22;3179;54.350;10.102;2022-12-07T03:15:57;5.20;99.90
6293;DHT22;3179;54.350;10.102;2022-12-07T03:18:27;5.20;99.90
6293;DHT22;3179;54.350;10.102;2022-12-07T03:20:59;5.20;99.90
6293;DHT22;3179;54.350;10.102;2022-12-07T03:23:29;5.20;99.90
6293;DHT22;3179;54.350;10.102;2022-12-07T03:26:00;5.20;99.90
6293;DHT22;3179;54.350;10.102;2022-12-07T03:28:31;5.30;99.90
6293;DHT22;3179;54.350;10.102;2022-12-07T03:31:03;5.30;99.90
6293;DHT22;3179;54.350;10.102;2022-12-07T03:33:36;5.30;99.90
6293;DHT22;3179;54.350;10.102;2022-12-07T03:36:06;5.30;99.90
6293;DHT22;3179;54.350;10.102;2022-12-07T03:38:38;5.30;99.90
6293;DHT22;3179;54.350;10.102;2022-12-07T03:41:07;5.30;99.90
6293;DHT22;3179;54.350;10.102;2022-12-07T03:43:36;5.30;99.90
6293;DHT22;3179;54.350;10.102;2022-12-07T03:46:13;5.30;99.90
6293;DHT22;3179;54.350;10.102;2022-12-07T03:48:49;5.30;99.90
6293;DHT22;3179;54.350;10.102;2022-12-07T03:51:21;5.30;99.90
6293;DHT22;3179;54.350;10.102;2022-12-07T03:53:52;5.30;99.90
6293;DHT22;3179;54.350;10.102;2022-12-07T03:56:22;5.30;99.90
6293;DHT22;3179;54.350;10.102;2022-12-07T03:58:50;5.30;99.90
6293;DHT22;3179;54.350;10.102;2022-12-07T04:01:19;5.30;99.90
6293;DHT22;3179;54.350;10.102;2022-12-07T04:03:46;5.30;99.90
6293;DHT22;3179;54.350;10.102;2022-12-07T04:06:13;5.30;99.90
6293;DHT22;3179;54.350;10.102;2022-12-07T04:08:39;5.30;99.90
6293;DHT22;3179;54.350;10.102;2022-12-07T04:11:06;5.30;99.90
6293;DHT22;3179;54.350;10.102;2022-12-07T04:13:33;5.30;99.90
6293;DHT22;3179;54.350;10.102;2022-12-07T04:16:22;5.30;99.90
6293;DHT22;3179;54.350;10.102;2022-12-07T04:18:48;5.30;99.90
6293;DHT22;3179;54.350;10.102;2022-12-07T04:21:15;5.30;99.90
6293;DHT22;3179;54.350;10.102;2022-12-07T04:23:42;5.30;99.90
6293;DHT22;3179;54.350;10.102;2022-12-07T04:26:09;5.30;99.90
6293;DHT22;3179;54.350;10.102;2022-12-07T04:28:35;5.30;99.90
6293;DHT22;3179;54.350;10.102;2022-12-07T04:31:02;5.30;99.90
6293;DHT22;3179;54.350;10.102;2022-12-07T04:33:30;5.30;99.90
6293;DHT22;3179;54.350;10.102;2022-12-07T04:35:58;5.20;99.90
6293;DHT22;3179;54.350;10.102;2022-12-07T04:38:25;5.30;99.90
6293;DHT22;3179;54.350;10.102;2022-12-07T04:40:52;5.30;99.90
6293;DHT22;3179;54.350;10.102;2022-12-07T04:43:18;5.20;99.90
6293;DHT22;3179;54.350;10.102;2022-12-07T04:45:46;5.20;99.90
6293;DHT22;3179;54.350;10.102;2022-12-07T04:48:13;5.20;99.90
6293;DHT22;3179;54.350;10.102;2022-12-07T04:50:41;5.20;99.90
6293;DHT22;3179;54.350;10.102;2022-12-07T04:53:08;5.20;99.90
6293;DHT22;3179;54.350;10.102;2022-12-07T04:55:35;5.20;99.90
6293;DHT22;3179;54.350;10.102;2022-12-07T04:58:02;5.10;99.90
6293;DHT22;3179;54.350;10.102;2022-12-07T05:00:29;5.10;99.90
6293;DHT22;3179;54.350;10.102;2022-12-07T05:02:55;5.10;99.90
6293;DHT22;3179;54.350;10.102;2022-12-07T05:05:22;5.00;99.90
6293;DHT22;3179;54.350;10.102;2022-12-07T05:07:51;5.00;99.90
6293;DHT22;3179;54.350;10.102;2022-12-07T05:10:17;5.00;99.90
6293;DHT22;3179;54.350;10.102;2022-12-07T05:12:44;5.00;99.90
6293;DHT22;3179;54.350;10.102;2022-12-07T05:15:11;4.90;99.90
6293;DHT22;3179;54.350;10.102;2022-12-07T05:17:38;4.90;99.90
6293;DHT22;3179;54.350;10.102;2022-12-07T05:20:06;4.90;99.90
6293;DHT22;3179;54.350;10.102;2022-12-07T05:22:33;4.90;99.90
6293;DHT22;3179;54.350;10.102;2022-12-07T05:25:02;4.90;99.90
6293;DHT22;3179;54.350;10.102;2022-12-07T05:27:29;4.90;99.90
6293;DHT22;3179;54.350;10.102;2022-12-07T05:29:56;4.90;99.90
6293;DHT22;3179;54.350;10.102;2022-12-07T05:32:23;4.80;99.90
6293;DHT22;3179;54.350;10.102;2022-12-07T05:34:49;4.90;99.90
6293;DHT22;3179;54.350;10.102;2022-12-07T05:37:16;4.90;99.90
6293;DHT22;3179;54.350;10.102;2022-12-07T05:39:43;4.80;99.90
6293;DHT22;3179;54.350;10.102;2022-12-07T05:42:11;4.80;99.90
6293;DHT22;3179;54.350;10.102;2022-12-07T05:44:37;4.80;99.90
6293;DHT22;3179;54.350;10.102;2022-12-07T05:47:04;4.90;99.90
6293;DHT22;3179;54.350;10.102;2022-12-07T05:49:31;4.80;99.90
6293;DHT22;3179;54.350;10.102;2022-12-07T05:51:58;4.80;99.90
6293;DHT22;3179;54.350;10.102;2022-12-07T05:54:25;4.80;99.90
6293;DHT22;3179;54.350;10.102;2022-12-07T05:56:52;4.70;99.90
6293;DHT22;3179;54.350;10.102;2022-12-07T05:59:20;4.80;99.90
6293;DHT22;3179;54.350;10.102;2022-12-07T06:01:48;4.80;99.90
6293;DHT22;3179;54.350;10.102;2022-12-07T06:04:15;4.70;99.90
6293;DHT22;3179;54.350;10.102;2022-12-07T06:06:42;4.70;99.90
6293;DHT22;3179;54.350;10.102;2022-12-07T06:09:09;4.70;99.90
6293;DHT22;3179;54.350;10.102;2022-12-07T06:11:36;4.70;99.90
6293;DHT22;3179;54.350;10.102;2022-12-07T06:14:21;4.70;99.90
6293;DHT22;3179;54.350;10.102;2022-12-07T06:16:48;4.70;99.90
6293;DHT22;3179;54.350;10.102;2022-12-07T06:19:15;4.70;99.90
6293;DHT22;3179;54.350;10.102;2022-12-07T06:21:42;4.60;99.90
6293;DHT22;3179;54.350;10.102;2022-12-07T06:24:10;4.60;99.90
6293;DHT22;3179;54.350;10.102;2022-12-07T06:26:37;4.60;99.90
6293;DHT22;3179;54.350;10.102;2022-12-07T06:29:04;4.60;99.90
6293;DHT22;3179;54.350;10.102;2022-12-07T06:31:32;4.60;99.90
6293;DHT22;3179;54.350;10.102;2022-12-07T06:34:00;4.60;99.90
6293;DHT22;3179;54.350;10.102;2022-12-07T06:36:28;4.60;99.90
6293;DHT22;3179;54.350;10.102;2022-12-07T06:38:55;4.60;99.90
6293;DHT22;3179;54.350;10.102;2022-12-07T06:41:22;4.60;99.90
6293;DHT22;3179;54.350;10.102;2022-12-07T06:43:49;4.60;99.90
6293;DHT22;3179;54.350;10.102;2022-12-07T06:46:16;4.60;99.90
6293;DHT22;3179;54.350;10.102;2022-12-07T06:48:44;4.50;99.90
6293;DHT22;3179;54.350;10.102;2022-12-07T06:51:11;4.50;99.90
6293;DHT22;3179;54.350;10.102;2022-12-07T06:53:38;4.50;99.90
6293;DHT22;3179;54.350;10.102;2022-12-07T06:56:05;4.60;99.90
6293;DHT22;3179;54.350;10.102;2022-12-07T06:58:32;4.60;99.90
6293;DHT22;3179;54.350;10.102;2022-12-07T07:00:58;4.60;99.90
6293;DHT22;3179;54.350;10.102;2022-12-07T07:03:25;4.60;99.90
6293;DHT22;3179;54.350;10.102;2022-12-07T07:05:53;4.50;99.90
6293;DHT22;3179;54.350;10.102;2022-12-07T07:08:20;4.50;99.90
6293;DHT22;3179;54.350;10.102;2022-12-07T07:10:47;4.50;99.90
6293;DHT22;3179;54.350;10.102;2022-12-07T07:13:14;4.50;99.90
6293;DHT22;3179;54.350;10.102;2022-12-07T07:15:40;4.50;99.90
6293;DHT22;3179;54.350;10.102;2022-12-07T07:18:07;4.50;99.90
6293;DHT22;3179;54.350;10.102;2022-12-07T07:20:34;4.50;99.90
6293;DHT22;3179;54.350;10.102;2022-12-07T07:23:02;4.50;99.90
6293;DHT22;3179;54.350;10.102;2022-12-07T07:25:29;4.50;99.90
6293;DHT22;3179;54.350;10.102;2022-12-07T07:27:56;4.50;99.90
6293;DHT22;3179;54.350;10.102;2022-12-07T07:30:23;4.50;99.90
6293;DHT22;3179;54.350;10.102;2022-12-07T07:32:50;4.50;99.90
6293;DHT22;3179;54.350;10.102;2022-12-07T07:35:17;4.50;99.90
6293;DHT22;3179;54.350;10.102;2022-12-07T07:37:43;4.50;99.90
6293;DHT22;3179;54.350;10.102;2022-12-07T07:40:12;4.50;99.90
6293;DHT22;3179;54.350;10.102;2022-12-07T07:42:39;4.50;99.90
6293;DHT22;3179;54.350;10.102;2022-12-07T07:45:06;4.50;99.90
6293;DHT22;3179;54.350;10.102;2022-12-07T07:47:33;4.50;99.90
6293;DHT22;3179;54.350;10.102;2022-12-07T07:50:00;4.50;99.90
6293;DHT22;3179;54.350;10.102;2022-12-07T07:52:27;4.50;99.90
6293;DHT22;3179;54.350;10.102;2022-12-07T07:54:54;4.50;99.90
6293;DHT22;3179;54.350;10.102;2022-12-07T07:57:22;4.50;99.90
6293;DHT22;3179;54.350;10.102;2022-12-07T07:59:49;4.50;99.90
6293;DHT22;3179;54.350;10.102;2022-12-07T08:02:18;4.50;99.90
6293;DHT22;3179;54.350;10.102;2022-12-07T08:04:45;4.50;99.90
6293;DHT22;3179;54.350;10.102;2022-12-07T08:07:13;4.50;99.90
6293;DHT22;3179;54.350;10.102;2022-12-07T08:09:40;4.60;99.90
6293;DHT22;3179;54.350;10.102;2022-12-07T08:12:08;4.60;99.90
6293;DHT22;3179;54.350;10.102;2022-12-07T08:14:36;4.60;99.90
6293;DHT22;3179;54.350;10.102;2022-12-07T08:17:03;4.60;99.90
6293;DHT22;3179;54.350;10.102;2022-12-07T08:19:30;4.60;99.90
6293;DHT22;3179;54.350;10.102;2022-12-07T08:21:56;4.60;99.90
6293;DHT22;3179;54.350;10.102;2022-12-07T08:24:23;4.60;99.90
6293;DHT22;3179;54.350;10.102;2022-12-07T08:26:50;4.60;99.90
6293;DHT22;3179;54.350;10.102;2022-12-07T08:29:17;4.60;99.90
6293;DHT22;3179;54.350;10.102;2022-12-07T08:31:46;4.60;99.90
6293;DHT22;3179;54.350;10.102;2022-12-07T08:34:13;4.60;99.90
6293;DHT22;3179;54.350;10.102;2022-12-07T08:36:40;4.60;99.90
6293;DHT22;3179;54.350;10.102;2022-12-07T08:39:07;4.60;99.90
6293;DHT22;3179;54.350;10.102;2022-12-07T08:41:34;4.70;99.90
6293;DHT22;3179;54.350;10.102;2022-12-07T08:44:00;4.60;99.90
6293;DHT22;3179;54.350;10.102;2022-12-07T08:46:31;4.70;99.90
6293;DHT22;3179;54.350;10.102;2022-12-07T08:49:05;4.70;99.90
6293;DHT22;3179;54.350;10.102;2022-12-07T08:51:33;4.70;99.90
6293;DHT22;3179;54.350;10.102;2022-12-07T08:54:02;4.70;99.90
6293;DHT22;3179;54.350;10.102;2022-12-07T08:56:30;4.70;99.90
6293;DHT22;3179;54.350;10.102;2022-12-07T08:58:58;4.70;99.90
6293;DHT22;3179;54.350;10.102;2022-12-07T09:01:25;4.70;99.90
6293;DHT22;3179;54.350;10.102;2022-12-07T09:03:52;4.70;99.90
6293;DHT22;3179;54.350;10.102;2022-12-07T09:06:20;4.70;99.90
6293;DHT22;3179;54.350;10.102;2022-12-07T09:08:51;4.80;99.90
6293;DHT22;3179;54.350;10.102;2022-12-07T09:11:20;4.80;99.90
6293;DHT22;3179;54.350;10.102;2022-12-07T09:13:47;4.80;99.90
6293;DHT22;3179;54.350;10.102;2022-12-07T09:16:14;4.80;99.90
6293;DHT22;3179;54.350;10.102;2022-12-07T09:18:40;4.80;99.90
6293;DHT22;3179;54.350;10.102;2022-12-07T09:21:07;4.90;99.90
6293;DHT22;3179;54.350;10.102;2022-12-07T09:23:36;4.90;99.90
6293;DHT22;3179;54.350;10.102;2022-12-07T09:26:03;4.90;99.90
6293;DHT22;3179;54.350;10.102;2022-12-07T09:28:31;4.90;99.90
6293;DHT22;3179;54.350;10.102;2022-12-07T09:30:57;4.90;99.90
6293;DHT22;3179;54.350;10.102;2022-12-07T09:33:24;4.90;99.90
6293;DHT22;3179;54.350;10.102;2022-12-07T09:35:51;4.90;99.90
6293;DHT22;3179;54.350;10.102;2022-12-07T09:38:19;4.90;99.90
6293;DHT22;3179;54.350;10.102;2022-12-07T09:40:48;4.90;99.90
6293;DHT22;3179;54.350;10.102;2022-12-07T09:43:16;5.00;99.90
6293;DHT22;3179;54.350;10.102;2022-12-07T09:45:44;4.90;99.90
6293;DHT22;3179;54.350;10.102;2022-12-07T09:48:17;4.90;99.90
6293;DHT22;3179;54.350;10.102;2022-12-07T09:50:45;4.90;99.90
6293;DHT22;3179;54.350;10.102;2022-12-07T09:53:15;4.90;99.90
6293;DHT22;3179;54.350;10.102;2022-12-07T09:55:43;5.00;99.90
6293;DHT22;3179;54.350;10.102;2022-12-07T09:58:18;5.00;99.90
6293;DHT22;3179;54.350;10.102;2022-12-07T10:00:46;5.00;99.90
6293;DHT22;3179;54.350;10.102;2022-12-07T10:03:13;5.00;99.90
6293;DHT22;3179;54.350;10.102;2022-12-07T10:05:42;5.00;99.90
6293;DHT22;3179;54.350;10.102;2022-12-07T10:08:11;5.00;99.90
6293;DHT22;3179;54.350;10.102;2022-12-07T10:10:39;5.00;99.90
6293;DHT22;3179;54.350;10.102;2022-12-07T10:13:09;5.00;99.90
6293;DHT22;3179;54.350;10.102;2022-12-07T10:15:47;5.00;99.90
6293;DHT22;3179;54.350;10.102;2022-12-07T10:18:20;5.00;99.90
6293;DHT22;3179;54.350;10.102;2022-12-07T10:20:47;5.00;99.90
6293;DHT22;3179;54.350;10.102;2022-12-07T10:23:16;5.00;99.90
6293;DHT22;3179;54.350;10.102;2022-12-07T10:25:43;5.00;99.90
6293;DHT22;3179;54.350;10.102;2022-12-07T10:28:15;5.00;99.90
6293;DHT22;3179;54.350;10.102;2022-12-07T10:30:53;5.00;99.90
6293;DHT22;3179;54.350;10.102;2022-12-07T10:33:33;5.10;99.90
6293;DHT22;3179;54.350;10.102;2022-12-07T10:36:16;5.10;99.90
6293;DHT22;3179;54.350;10.102;2022-12-07T10:38:46;5.10;99.90
6293;DHT22;3179;54.350;10.102;2022-12-07T10:41:14;5.10;99.90
6293;DHT22;3179;54.350;10.102;2022-12-07T10:43:47;5.10;99.90
6293;DHT22;3179;54.350;10.102;2022-12-07T10:46:36;5.20;99.90
6293;DHT22;3179;54.350;10.102;2022-12-07T10:49:25;5.20;99.90
6293;DHT22;3179;54.350;10.102;2022-12-07T10:52:00;5.20;99.90
6293;DHT22;3179;54.350;10.102;2022-12-07T10:54:40;5.20;99.90
6293;DHT22;3179;54.350;10.102;2022-12-07T10:57:19;5.10;99.90
6293;DHT22;3179;54.350;10.102;2022-12-07T11:00:00;5.20;99.90
6293;DHT22;3179;54.350;10.102;2022-12-07T11:02:42;5.20;99.90
6293;DHT22;3179;54.350;10.102;2022-12-07T11:05:19;5.20;99.90
6293;DHT22;3179;54.350;10.102;2022-12-07T11:07:56;5.20;99.90
6293;DHT22;3179;54.350;10.102;2022-12-07T11:10:30;5.20;99.90
6293;DHT22;3179;54.350;10.102;2022-12-07T11:16:03;5.30;99.90
6293;DHT22;3179;54.350;10.102;2022-12-07T11:18:43;5.30;99.90
6293;DHT22;3179;54.350;10.102;2022-12-07T11:21:18;5.40;99.90
6293;DHT22;3179;54.350;10.102;2022-12-07T11:23:55;5.40;99.90
6293;DHT22;3179;54.350;10.102;2022-12-07T11:26:32;5.40;99.90
6293;DHT22;3179;54.350;10.102;2022-12-07T11:29:15;5.40;99.90
6293;DHT22;3179;54.350;10.102;2022-12-07T11:31:54;5.40;99.90
6293;DHT22;3179;54.350;10.102;2022-12-07T11:34:32;5.40;99.90
6293;DHT22;3179;54.350;10.102;2022-12-07T11:37:02;5.40;99.90
6293;DHT22;3179;54.350;10.102;2022-12-07T11:39:33;5.40;99.90
6293;DHT22;3179;54.350;10.102;2022-12-07T11:42:05;5.40;99.90
6293;DHT22;3179;54.350;10.102;2022-12-07T11:44:38;5.40;99.90
6293;DHT22;3179;54.350;10.102;2022-12-07T11:47:09;5.40;99.90
6293;DHT22;3179;54.350;10.102;2022-12-07T11:49:44;5.40;99.90
6293;DHT22;3179;54.350;10.102;2022-12-07T11:52:20;5.40;99.90
6293;DHT22;3179;54.350;10.102;2022-12-07T11:54:50;5.40;99.90
6293;DHT22;3179;54.350;10.102;2022-12-07T11:57:37;5.50;99.90
6293;DHT22;3179;54.350;10.102;2022-12-07T12:00:14;5.50;99.90
6293;DHT22;3179;54.350;10.102;2022-12-07T12:02:44;5.50;99.90
6293;DHT22;3179;54.350;10.102;2022-12-07T12:05:18;5.50;99.90
6293;DHT22;3179;54.350;10.102;2022-12-07T12:07:48;5.50;99.90
6293;DHT22;3179;54.350;10.102;2022-12-07T12:10:22;5.50;99.90
6293;DHT22;3179;54.350;10.102;2022-12-07T12:13:05;5.50;99.90
6293;DHT22;3179;54.350;10.102;2022-12-07T12:15:51;5.50;99.90
6293;DHT22;3179;54.350;10.102;2022-12-07T12:21:20;5.50;99.90
6293;DHT22;3179;54.350;10.102;2022-12-07T12:23:54;5.40;99.90
6293;DHT22;3179;54.350;10.102;2022-12-07T12:26:24;5.50;99.90
6293;DHT22;3179;54.350;10.102;2022-12-07T12:28:54;5.50;99.90
6293;DHT22;3179;54.350;10.102;2022-12-07T12:31:36;5.50;99.90
6293;DHT22;3179;54.350;10.102;2022-12-07T12:34:32;5.50;99.90
6293;DHT22;3179;54.350;10.102;2022-12-07T12:37:01;5.50;99.90
6293;DHT22;3179;54.350;10.102;2022-12-07T12:39:28;5.50;99.90
6293;DHT22;3179;54.350;10.102;2022-12-07T12:41:59;5.50;99.90
6293;DHT22;3179;54.350;10.102;2022-12-07T12:45:03;5.50;99.90
6293;DHT22;3179;54.350;10.102;2022-12-07T12:47:52;5.50;99.90
6293;DHT22;3179;54.350;10.102;2022-12-07T12:50:21;5.50;99.90
6293;DHT22;3179;54.350;10.102;2022-12-07T12:53:12;5.50;99.90
6293;DHT22;3179;54.350;10.102;2022-12-07T12:56:17;5.50;99.90
6293;DHT22;3179;54.350;10.102;2022-12-07T12:58:49;5.60;99.90
6293;DHT22;3179;54.350;10.102;2022-12-07T13:01:41;5.50;99.90
6293;DHT22;3179;54.350;10.102;2022-12-07T13:04:24;5.50;99.90
6293;DHT22;3179;54.350;10.102;2022-12-07T13:06:52;5.50;99.90
6293;DHT22;3179;54.350;10.102;2022-12-07T13:09:22;5.50;99.90
6293;DHT22;3179;54.350;10.102;2022-12-07T13:12:00;5.50;99.90
6293;DHT22;3179;54.350;10.102;2022-12-07T13:14:42;5.50;99.90
6293;DHT22;3179;54.350;10.102;2022-12-07T13:17:10;5.50;99.90
6293;DHT22;3179;54.350;10.102;2022-12-07T13:19:55;5.50;99.90
6293;DHT22;3179;54.350;10.102;2022-12-07T13:22:51;5.40;99.90
6293;DHT22;3179;54.350;10.102;2022-12-07T13:25:36;5.40;99.90
6293;DHT22;3179;54.350;10.102;2022-12-07T13:28:14;5.30;99.90
6293;DHT22;3179;54.350;10.102;2022-12-07T13:30:46;5.30;99.90
6293;DHT22;3179;54.350;10.102;2022-12-07T13:33:15;5.30;99.90
6293;DHT22;3179;54.350;10.102;2022-12-07T13:35:43;5.40;99.90
6293;DHT22;3179;54.350;10.102;2022-12-07T13:38:22;5.30;99.90
6293;DHT22;3179;54.350;10.102;2022-12-07T13:41:12;5.40;99.90
6293;DHT22;3179;54.350;10.102;2022-12-07T13:43:48;5.30;99.90
6293;DHT22;3179;54.350;10.102;2022-12-07T13:46:17;5.40;99.90
6293;DHT22;3179;54.350;10.102;2022-12-07T13:48:47;5.40;99.90
6293;DHT22;3179;54.350;10.102;2022-12-07T13:51:20;5.40;99.90
6293;DHT22;3179;54.350;10.102;2022-12-07T13:53:48;5.40;99.90
6293;DHT22;3179;54.350;10.102;2022-12-07T13:56:16;5.30;99.90
6293;DHT22;3179;54.350;10.102;2022-12-07T13:58:43;5.30;99.90
6293;DHT22;3179;54.350;10.102;2022-12-07T14:01:10;5.30;99.90
6293;DHT22;3179;54.350;10.102;2022-12-07T14:03:39;5.30;99.90
6293;DHT22;3179;54.350;10.102;2022-12-07T14:06:16;5.30;99.90
6293;DHT22;3179;54.350;10.102;2022-12-07T14:08:43;5.30;99.90
6293;DHT22;3179;54.350;10.102;2022-12-07T14:11:16;5.30;99.90
6293;DHT22;3179;54.350;10.102;2022-12-07T14:13:56;5.30;99.90
6293;DHT22;3179;54.350;10.102;2022-12-07T14:16:27;5.30;99.90
6293;DHT22;3179;54.350;10.102;2022-12-07T14:18:55;5.30;99.90
6293;DHT22;3179;54.350;10.102;2022-12-07T14:21:23;5.30;99.90
6293;DHT22;3179;54.350;10.102;2022-12-07T14:24:14;5.20;99.90
6293;DHT22;3179;54.350;10.102;2022-12-07T14:26:43;5.30;99.90
6293;DHT22;3179;54.350;10.102;2022-12-07T14:29:21;5.20;99.90
6293;DHT22;3179;54.350;10.102;2022-12-07T14:31:55;5.20;99.90
6293;DHT22;3179;54.350;10.102;2022-12-07T14:34:23;5.20;99.90
6293;DHT22;3179;54.350;10.102;2022-12-07T14:36:50;5.20;99.90
6293;DHT22;3179;54.350;10.102;2022-12-07T14:39:17;5.20;99.90
6293;DHT22;3179;54.350;10.102;2022-12-07T14:41:45;5.20;99.90
6293;DHT22;3179;54.350;10.102;2022-12-07T14:44:19;5.20;99.90
6293;DHT22;3179;54.350;10.102;2022-12-07T14:46:46;5.10;99.90
6293;DHT22;3179;54.350;10.102;2022-12-07T14:49:13;5.10;99.90
6293;DHT22;3179;54.350;10.102;2022-12-07T14:51:41;5.10;99.90
6293;DHT22;3179;54.350;10.102;2022-12-07T14:54:15;5.10;99.90
6293;DHT22;3179;54.350;10.102;2022-12-07T14:56:42;5.10;99.90
6293;DHT22;3179;54.350;10.102;2022-12-07T14:59:11;5.10;99.90
6293;DHT22;3179;54.350;10.102;2022-12-07T15:01:38;5.00;99.90
6293;DHT22;3179;54.350;10.102;2022-12-07T15:04:05;5.00;99.90
6293;DHT22;3179;54.350;10.102;2022-12-07T15:06:32;5.00;99.90
6293;DHT22;3179;54.350;10.102;2022-12-07T15:08:59;5.00;99.90
6293;DHT22;3179;54.350;10.102;2022-12-07T15:11:26;5.00;99.90
6293;DHT22;3179;54.350;10.102;2022-12-07T15:13:52;5.00;99.90
6293;DHT22;3179;54.350;10.102;2022-12-07T15:16:37;5.00;99.90
6293;DHT22;3179;54.350;10.102;2022-12-07T15:19:05;5.00;99.90
6293;DHT22;3179;54.350;10.102;2022-12-07T15:21:32;5.00;99.90
6293;DHT22;3179;54.350;10.102;2022-12-07T15:23:59;5.00;99.90
6293;DHT22;3179;54.350;10.102;2022-12-07T15:26:25;5.00;99.90
6293;DHT22;3179;54.350;10.102;2022-12-07T15:28:53;4.90;99.90
6293;DHT22;3179;54.350;10.102;2022-12-07T15:31:20;4.90;99.90
6293;DHT22;3179;54.350;10.102;2022-12-07T15:33:48;4.90;99.90
6293;DHT22;3179;54.350;10.102;2022-12-07T15:36:19;4.90;99.90
6293;DHT22;3179;54.350;10.102;2022-12-07T15:38:47;4.90;99.90
6293;DHT22;3179;54.350;10.102;2022-12-07T15:41:15;4.90;99.90
6293;DHT22;3179;54.350;10.102;2022-12-07T15:43:42;4.90;99.90
6293;DHT22;3179;54.350;10.102;2022-12-07T15:46:30;4.90;99.90
6293;DHT22;3179;54.350;10.102;2022-12-07T15:48:59;4.80;99.90
6293;DHT22;3179;54.350;10.102;2022-12-07T15:51:26;4.80;99.90
6293;DHT22;3179;54.350;10.102;2022-12-07T15:53:53;4.80;99.90
6293;DHT22;3179;54.350;10.102;2022-12-07T15:56:21;4.80;99.90
6293;DHT22;3179;54.350;10.102;2022-12-07T15:58:48;4.80;99.90
6293;DHT22;3179;54.350;10.102;2022-12-07T16:01:16;4.80;99.90
6293;DHT22;3179;54.350;10.102;2022-12-07T16:03:45;4.80;99.90
6293;DHT22;3179;54.350;10.102;2022-12-07T16:06:15;4.80;99.90
6293;DHT22;3179;54.350;10.102;2022-12-07T16:08:42;4.80;99.90
6293;DHT22;3179;54.350;10.102;2022-12-07T16:11:10;4.80;99.90
6293;DHT22;3179;54.350;10.102;2022-12-07T16:13:37;4.70;99.90
6293;DHT22;3179;54.350;10.102;2022-12-07T16:16:06;4.70;99.90
6293;DHT22;3179;54.350;10.102;2022-12-07T16:18:33;4.70;99.90
6293;DHT22;3179;54.350;10.102;2022-12-07T16:21:00;4.70;99.90
6293;DHT22;3179;54.350;10.102;2022-12-07T16:23:28;4.70;99.90
6293;DHT22;3179;54.350;10.102;2022-12-07T16:26:03;4.70;99.90
6293;DHT22;3179;54.350;10.102;2022-12-07T16:28:30;4.60;99.90